createdAt,value
2017-10-13T00:00:47.473Z,1016.44
2017-10-13T00:01:56.401Z,1016.46
2017-10-13T00:03:05.249Z,1016.46
2017-10-13T00:04:14.394Z,1016.47
2017-10-13T00:05:23.227Z,1016.49
2017-10-13T00:06:32.061Z,1016.49
2017-10-13T00:07:40.896Z,1016.5
2017-10-13T00:08:49.731Z,1016.53
2017-10-13T00:09:58.560Z,1016.57
2017-10-13T00:11:07.394Z,1016.6
2017-10-13T00:12:16.233Z,1016.63
2017-10-13T00:13:25.064Z,1016.6
2017-10-13T00:14:33.900Z,1016.59
2017-10-13T00:15:42.731Z,1016.61
2017-10-13T00:16:51.580Z,1016.62
2017-10-13T00:18:00.686Z,1016.63
2017-10-13T00:19:09.697Z,1016.62
2017-10-13T00:20:18.539Z,1016.69
2017-10-13T00:21:27.372Z,1016.65
2017-10-13T00:22:36.211Z,1016.61
2017-10-13T00:23:45.087Z,1016.65
2017-10-13T00:24:53.959Z,1016.65
2017-10-13T00:26:02.801Z,1016.59
2017-10-13T00:27:11.998Z,1016.63
2017-10-13T00:28:21.177Z,1016.63
2017-10-13T00:29:30.019Z,1016.61
2017-10-13T00:30:39.747Z,1016.63
2017-10-13T00:31:48.933Z,1016.62
2017-10-13T00:32:57.825Z,1016.63
2017-10-13T00:34:06.856Z,1016.6
2017-10-13T00:35:15.688Z,1016.53
2017-10-13T00:36:24.523Z,1016.5
2017-10-13T00:37:33.356Z,1016.5
2017-10-13T00:38:42.189Z,1016.47
2017-10-13T00:39:51.029Z,1016.5
2017-10-13T00:41:00.256Z,1016.52
2017-10-13T00:42:09.540Z,1016.47
2017-10-13T00:43:18.742Z,1016.48
2017-10-13T00:44:27.631Z,1016.49
2017-10-13T00:45:36.457Z,1016.48
2017-10-13T00:46:45.336Z,1016.47
2017-10-13T00:47:54.169Z,1016.46
2017-10-13T00:49:02.999Z,1016.46
2017-10-13T00:50:11.835Z,1016.48
2017-10-13T00:51:20.668Z,1016.5
2017-10-13T00:52:29.504Z,1016.53
2017-10-13T00:53:38.338Z,1016.53
2017-10-13T00:54:47.188Z,1016.49
2017-10-13T00:55:56.023Z,1016.52
2017-10-13T00:57:04.856Z,1016.47
2017-10-13T00:58:13.693Z,1016.46
2017-10-13T00:59:22.519Z,1016.51
2017-10-13T01:00:31.356Z,1016.47
2017-10-13T01:01:40.182Z,1016.48
2017-10-13T01:02:49.019Z,1016.48
2017-10-13T01:03:57.854Z,1016.49
2017-10-13T01:05:06.691Z,1016.55
2017-10-13T01:06:15.942Z,1016.54
2017-10-13T01:07:24.841Z,1016.57
2017-10-13T01:08:33.726Z,1016.54
2017-10-13T01:09:42.558Z,1016.57
2017-10-13T01:10:51.448Z,1016.64
2017-10-13T01:12:00.354Z,1016.61
2017-10-13T01:13:09.191Z,1016.63
2017-10-13T01:14:18.111Z,1016.65
2017-10-13T01:15:27.175Z,1016.62
2017-10-13T01:16:37.315Z,1016.64
2017-10-13T01:17:46.515Z,1016.6
2017-10-13T01:18:56.382Z,1016.64
2017-10-13T01:20:06.191Z,1016.63
2017-10-13T01:21:15.868Z,1016.68
2017-10-13T01:22:25.906Z,1016.71
2017-10-13T01:23:35.998Z,1016.75
2017-10-13T01:24:45.624Z,1016.71
2017-10-13T01:25:54.854Z,1016.75
2017-10-13T01:27:04.229Z,1016.78
2017-10-13T01:28:13.352Z,1016.81
2017-10-13T01:29:23.267Z,1016.85
2017-10-13T01:30:32.408Z,1016.93
2017-10-13T01:31:41.763Z,1016.9
2017-10-13T01:32:50.915Z,1016.87
2017-10-13T01:34:00.957Z,1016.88
2017-10-13T01:35:10.728Z,1016.92
2017-10-13T01:36:19.894Z,1016.91
2017-10-13T01:37:29.180Z,1016.9
2017-10-13T01:38:39.789Z,1016.87
2017-10-13T01:39:49.584Z,1016.91
2017-10-13T01:40:58.755Z,1016.91
2017-10-13T01:42:07.997Z,1016.93
2017-10-13T01:43:16.882Z,1016.89
2017-10-13T01:44:25.716Z,1016.86
2017-10-13T01:45:34.547Z,1016.85
2017-10-13T01:46:43.380Z,1016.89
2017-10-13T01:47:52.214Z,1016.81
2017-10-13T01:49:01.082Z,1016.84
2017-10-13T01:50:10.063Z,1016.82
2017-10-13T01:51:18.895Z,1016.83
2017-10-13T01:52:27.729Z,1016.82
2017-10-13T01:53:36.566Z,1016.78
2017-10-13T01:54:45.414Z,1016.75
2017-10-13T01:55:54.584Z,1016.77
2017-10-13T01:57:03.792Z,1016.77
2017-10-13T01:58:12.631Z,1016.82
2017-10-13T01:59:21.463Z,1016.9
2017-10-13T02:00:30.300Z,1016.83
2017-10-13T02:01:39.131Z,1016.82
2017-10-13T02:02:48.037Z,1016.84
2017-10-13T02:03:57.109Z,1016.9
2017-10-13T02:05:06.029Z,1016.91
2017-10-13T02:06:14.948Z,1016.93
2017-10-13T02:07:23.815Z,1016.98
2017-10-13T02:08:32.695Z,1016.99
2017-10-13T02:09:41.864Z,1016.97
2017-10-13T02:10:50.922Z,1017.01
2017-10-13T02:11:59.799Z,1017.08
2017-10-13T02:13:08.635Z,1017.06
2017-10-13T02:14:17.470Z,1017.01
2017-10-13T02:15:26.304Z,1017.01
2017-10-13T02:16:35.140Z,1017.13
2017-10-13T02:17:43.979Z,1017.04
2017-10-13T02:18:52.815Z,1017.1
2017-10-13T02:20:01.651Z,1017.14
2017-10-13T02:21:10.487Z,1017.12
2017-10-13T02:22:19.806Z,1017.18
2017-10-13T02:23:28.748Z,1017.14
2017-10-13T02:24:37.636Z,1017.16
2017-10-13T02:25:46.530Z,1017.19
2017-10-13T02:26:55.513Z,1017.2
2017-10-13T02:28:04.773Z,1017.15
2017-10-13T02:29:13.627Z,1017.17
2017-10-13T02:30:22.496Z,1017.13
2017-10-13T02:31:31.334Z,1017.16
2017-10-13T02:32:40.189Z,1017.15
2017-10-13T02:33:49.019Z,1017.13
2017-10-13T02:34:58.152Z,1017.13
2017-10-13T02:36:07.323Z,1017.13
2017-10-13T02:37:16.499Z,1017.08
2017-10-13T02:38:25.335Z,1017.05
2017-10-13T02:39:35.395Z,1017.14
2017-10-13T02:40:44.225Z,1017.13
2017-10-13T02:41:53.060Z,1017.18
2017-10-13T02:43:01.897Z,1017.17
2017-10-13T02:44:10.735Z,1017.2
2017-10-13T02:45:19.569Z,1017.13
2017-10-13T02:46:28.403Z,1017.12
2017-10-13T02:47:37.360Z,1017.19
2017-10-13T02:48:46.281Z,1017.11
2017-10-13T02:49:55.116Z,1017.13
2017-10-13T02:51:03.951Z,1017.14
2017-10-13T02:52:13.828Z,1017.24
2017-10-13T02:53:23.065Z,1017.23
2017-10-13T02:54:32.132Z,1017.19
2017-10-13T02:55:40.971Z,1017.21
2017-10-13T02:56:49.807Z,1017.26
2017-10-13T02:57:58.693Z,1017.24
2017-10-13T02:59:07.592Z,1017.28
2017-10-13T03:00:16.513Z,1017.21
2017-10-13T03:01:25.345Z,1017.29
2017-10-13T03:02:34.179Z,1017.3
2017-10-13T03:03:43.021Z,1017.31
2017-10-13T03:04:51.852Z,1017.34
2017-10-13T03:06:00.684Z,1017.3
2017-10-13T03:07:09.561Z,1017.25
2017-10-13T03:08:18.450Z,1017.29
2017-10-13T03:09:28.227Z,1017.31
2017-10-13T03:10:38.161Z,1017.34
2017-10-13T03:11:47.095Z,1017.38
2017-10-13T03:12:56.199Z,1017.33
2017-10-13T03:14:05.400Z,1017.35
2017-10-13T03:15:14.633Z,1017.36
2017-10-13T03:16:23.768Z,1017.37
2017-10-13T03:17:32.596Z,1017.33
2017-10-13T03:18:41.432Z,1017.32
2017-10-13T03:19:50.270Z,1017.38
2017-10-13T03:20:59.293Z,1017.4
2017-10-13T03:22:08.521Z,1017.48
2017-10-13T03:23:17.378Z,1017.42
2017-10-13T03:24:26.274Z,1017.47
2017-10-13T03:25:35.202Z,1017.51
2017-10-13T03:26:44.384Z,1017.52
2017-10-13T03:27:53.286Z,1017.56
2017-10-13T03:29:02.315Z,1017.52
2017-10-13T03:30:11.165Z,1017.56
2017-10-13T03:31:20.007Z,1017.52
2017-10-13T03:32:28.865Z,1017.55
2017-10-13T03:33:37.856Z,1017.55
2017-10-13T03:34:46.757Z,1017.52
2017-10-13T03:35:55.587Z,1017.55
2017-10-13T03:37:04.972Z,1017.52
2017-10-13T03:38:13.839Z,1017.49
2017-10-13T03:39:22.722Z,1017.49
2017-10-13T03:40:31.738Z,1017.46
2017-10-13T03:41:41.013Z,1017.46
2017-10-13T03:42:49.887Z,1017.53
2017-10-13T03:43:58.946Z,1017.48
2017-10-13T03:45:07.793Z,1017.51
2017-10-13T03:46:16.643Z,1017.5
2017-10-13T03:47:25.814Z,1017.49
2017-10-13T03:48:34.750Z,1017.56
2017-10-13T03:49:43.865Z,1017.55
2017-10-13T03:50:52.850Z,1017.61
2017-10-13T03:52:01.816Z,1017.61
2017-10-13T03:53:10.760Z,1017.64
2017-10-13T03:54:20.289Z,1017.6
2017-10-13T03:55:29.373Z,1017.65
2017-10-13T03:56:38.336Z,1017.68
2017-10-13T03:57:47.717Z,1017.65
2017-10-13T03:58:57.376Z,1017.68
2017-10-13T04:00:06.417Z,1017.69
2017-10-13T04:01:15.352Z,1017.68
2017-10-13T04:02:24.284Z,1017.7
2017-10-13T04:03:33.239Z,1017.71
2017-10-13T04:04:42.271Z,1017.68
2017-10-13T04:05:51.109Z,1017.68
2017-10-13T04:07:00.674Z,1017.69
2017-10-13T04:08:09.840Z,1017.68
2017-10-13T04:09:18.703Z,1017.7
2017-10-13T04:10:27.595Z,1017.69
2017-10-13T04:11:36.990Z,1017.67
2017-10-13T04:12:46.247Z,1017.7
2017-10-13T04:13:55.341Z,1017.69
2017-10-13T04:15:04.317Z,1017.71
2017-10-13T04:16:13.828Z,1017.69
2017-10-13T04:17:23.409Z,1017.72
2017-10-13T04:18:32.827Z,1017.8
2017-10-13T04:19:42.053Z,1017.8
2017-10-13T04:20:51.584Z,1017.81
2017-10-13T04:22:00.520Z,1017.81
2017-10-13T04:23:09.726Z,1017.8
2017-10-13T04:24:18.681Z,1017.83
2017-10-13T04:25:27.892Z,1017.81
2017-10-13T04:26:36.802Z,1017.86
2017-10-13T04:27:45.721Z,1017.87
2017-10-13T04:28:54.678Z,1017.86
2017-10-13T04:30:03.794Z,1017.9
2017-10-13T04:31:12.741Z,1017.9
2017-10-13T04:32:21.673Z,1017.88
2017-10-13T04:33:30.562Z,1017.95
2017-10-13T04:34:39.728Z,1017.94
2017-10-13T04:35:48.938Z,1017.98
2017-10-13T04:36:57.822Z,1017.93
2017-10-13T04:38:06.724Z,1017.96
2017-10-13T04:39:15.670Z,1017.95
2017-10-13T04:40:24.710Z,1018
2017-10-13T04:41:33.586Z,1018.01
2017-10-13T04:42:42.845Z,1018.03
2017-10-13T04:43:51.680Z,1018.03
2017-10-13T04:45:00.595Z,1017.98
2017-10-13T04:46:09.649Z,1018.02
2017-10-13T04:47:18.841Z,1017.99
2017-10-13T04:48:27.734Z,1017.99
2017-10-13T04:49:36.679Z,1018.03
2017-10-13T04:50:45.886Z,1018.01
2017-10-13T04:51:54.803Z,1018.01
2017-10-13T04:53:03.779Z,1018.06
2017-10-13T04:54:12.703Z,1017.98
2017-10-13T04:55:21.662Z,1017.98
2017-10-13T04:56:30.495Z,1017.98
2017-10-13T04:57:39.509Z,1017.89
2017-10-13T04:58:48.457Z,1017.93
2017-10-13T04:59:57.671Z,1017.93
2017-10-13T05:01:06.554Z,1017.99
2017-10-13T05:02:15.971Z,1017.96
2017-10-13T05:03:25.533Z,1018.04
2017-10-13T05:04:34.475Z,1018.01
2017-10-13T05:05:43.371Z,1018
2017-10-13T05:06:52.288Z,1017.98
2017-10-13T05:08:01.291Z,1017.98
2017-10-13T05:09:10.511Z,1017.97
2017-10-13T05:10:20.004Z,1017.95
2017-10-13T05:11:28.928Z,1017.94
2017-10-13T05:12:37.764Z,1017.98
2017-10-13T05:13:46.682Z,1017.98
2017-10-13T05:14:55.599Z,1018.02
2017-10-13T05:16:04.436Z,1018.02
2017-10-13T05:17:13.357Z,1018
2017-10-13T05:18:22.494Z,1018.02
2017-10-13T05:19:31.426Z,1018.02
2017-10-13T05:20:40.675Z,1018.08
2017-10-13T05:21:50.349Z,1018.03
2017-10-13T05:22:59.733Z,1018.06
2017-10-13T05:24:08.685Z,1018.09
2017-10-13T05:25:17.852Z,1018.06
2017-10-13T05:26:27.085Z,1018.06
2017-10-13T05:27:36.278Z,1018.05
2017-10-13T05:28:45.197Z,1018.07
2017-10-13T05:29:54.140Z,1018.06
2017-10-13T05:31:03.166Z,1018.11
2017-10-13T05:32:12.009Z,1018.12
2017-10-13T05:33:20.887Z,1018.11
2017-10-13T05:34:29.915Z,1018.1
2017-10-13T05:35:39.112Z,1018.08
2017-10-13T05:36:48.107Z,1018.07
2017-10-13T05:37:56.983Z,1018.05
2017-10-13T05:39:05.855Z,1018.06
2017-10-13T05:40:14.754Z,1018.04
2017-10-13T05:41:23.938Z,1018.12
2017-10-13T05:42:32.876Z,1018.12
2017-10-13T05:43:42.102Z,1018.16
2017-10-13T05:44:51.288Z,1018.28
2017-10-13T05:46:00.209Z,1018.26
2017-10-13T05:47:09.201Z,1018.25
2017-10-13T05:48:18.062Z,1018.26
2017-10-13T05:49:27.041Z,1018.27
2017-10-13T05:50:35.884Z,1018.25
2017-10-13T05:51:44.720Z,1018.23
2017-10-13T05:52:53.554Z,1018.23
2017-10-13T05:54:02.398Z,1018.27
2017-10-13T05:55:11.237Z,1018.27
2017-10-13T05:56:20.075Z,1018.26
2017-10-13T05:57:28.912Z,1018.26
2017-10-13T05:58:37.743Z,1018.24
2017-10-13T05:59:46.585Z,1018.3
2017-10-13T06:00:55.423Z,1018.31
2017-10-13T06:02:04.262Z,1018.32
2017-10-13T06:03:13.096Z,1018.28
2017-10-13T06:04:21.934Z,1018.28
2017-10-13T06:05:31.110Z,1018.27
2017-10-13T06:06:39.948Z,1018.25
2017-10-13T06:07:48.788Z,1018.27
2017-10-13T06:08:57.622Z,1018.23
2017-10-13T06:10:06.463Z,1018.28
2017-10-13T06:11:15.298Z,1018.28
2017-10-13T06:12:24.144Z,1018.27
2017-10-13T06:13:32.975Z,1018.26
2017-10-13T06:14:41.810Z,1018.29
2017-10-13T06:15:50.646Z,1018.28
2017-10-13T06:16:59.483Z,1018.29
2017-10-13T06:18:08.325Z,1018.24
2017-10-13T06:19:17.160Z,1018.28
2017-10-13T06:20:25.995Z,1018.29
2017-10-13T06:21:34.831Z,1018.32
2017-10-13T06:22:43.671Z,1018.32
2017-10-13T06:23:52.506Z,1018.33
2017-10-13T06:25:01.343Z,1018.34
2017-10-13T06:26:10.180Z,1018.27
2017-10-13T06:27:19.013Z,1018.32
2017-10-13T06:28:27.852Z,1018.4
2017-10-13T06:29:36.694Z,1018.34
2017-10-13T06:30:45.530Z,1018.34
2017-10-13T06:31:54.370Z,1018.35
2017-10-13T06:33:03.204Z,1018.37
2017-10-13T06:34:12.044Z,1018.38
2017-10-13T06:35:20.888Z,1018.38
2017-10-13T06:36:29.726Z,1018.38
2017-10-13T06:37:38.566Z,1018.38
2017-10-13T06:38:47.406Z,1018.41
2017-10-13T06:39:56.240Z,1018.43
2017-10-13T06:41:05.076Z,1018.38
2017-10-13T06:42:13.918Z,1018.4
2017-10-13T06:43:22.754Z,1018.43
2017-10-13T06:44:31.590Z,1018.42
2017-10-13T06:45:40.431Z,1018.41
2017-10-13T06:46:49.272Z,1018.41
2017-10-13T06:47:58.108Z,1018.42
2017-10-13T06:49:06.946Z,1018.42
2017-10-13T06:50:15.787Z,1018.39
2017-10-13T06:51:24.623Z,1018.43
2017-10-13T06:52:33.462Z,1018.36
2017-10-13T06:53:42.298Z,1018.4
2017-10-13T06:54:51.140Z,1018.45
2017-10-13T06:55:59.977Z,1018.42
2017-10-13T06:57:08.821Z,1018.44
2017-10-13T06:58:17.653Z,1018.39
2017-10-13T06:59:26.486Z,1018.43
2017-10-13T07:00:35.325Z,1018.49
2017-10-13T07:01:44.163Z,1018.44
2017-10-13T07:02:53.006Z,1018.47
2017-10-13T07:04:01.844Z,1018.49
2017-10-13T07:05:11.015Z,1018.51
2017-10-13T07:06:19.848Z,1018.51
2017-10-13T07:07:28.692Z,1018.53
2017-10-13T07:08:37.529Z,1018.55
2017-10-13T07:09:46.372Z,1018.57
2017-10-13T07:10:55.211Z,1018.54
2017-10-13T07:12:04.047Z,1018.63
2017-10-13T07:13:12.888Z,1018.64
2017-10-13T07:14:21.731Z,1018.72
2017-10-13T07:15:30.564Z,1018.72
2017-10-13T07:16:39.402Z,1018.72
2017-10-13T07:17:48.240Z,1018.73
2017-10-13T07:18:57.078Z,1018.72
2017-10-13T07:20:05.926Z,1018.68
2017-10-13T07:21:14.758Z,1018.66
2017-10-13T07:22:23.592Z,1018.71
2017-10-13T07:23:32.432Z,1018.66
2017-10-13T07:24:41.271Z,1018.71
2017-10-13T07:25:50.107Z,1018.73
2017-10-13T07:26:58.942Z,1018.76
2017-10-13T07:28:07.779Z,1018.76
2017-10-13T07:29:16.620Z,1018.75
2017-10-13T07:30:25.457Z,1018.78
2017-10-13T07:31:34.301Z,1018.79
2017-10-13T07:32:43.138Z,1018.79
2017-10-13T07:33:51.976Z,1018.76
2017-10-13T07:35:00.810Z,1018.81
2017-10-13T07:36:09.651Z,1018.84
2017-10-13T07:37:18.489Z,1018.83
2017-10-13T07:38:27.329Z,1018.82
2017-10-13T07:39:36.164Z,1018.86
2017-10-13T07:40:44.997Z,1018.82
2017-10-13T07:41:53.840Z,1018.84
2017-10-13T07:43:02.681Z,1018.83
2017-10-13T07:44:11.518Z,1018.84
2017-10-13T07:45:20.356Z,1018.89
2017-10-13T07:46:29.188Z,1018.83
2017-10-13T07:47:38.031Z,1018.84
2017-10-13T07:48:46.871Z,1018.81
2017-10-13T07:49:55.725Z,1018.85
2017-10-13T07:51:04.578Z,1018.78
2017-10-13T07:52:13.395Z,1018.78
2017-10-13T07:53:22.231Z,1018.79
2017-10-13T07:54:31.068Z,1018.76
2017-10-13T07:55:39.905Z,1018.77
2017-10-13T07:56:48.745Z,1018.82
2017-10-13T07:57:58.262Z,1018.84
2017-10-13T07:59:07.099Z,1018.9
2017-10-13T08:00:15.941Z,1018.88
2017-10-13T08:01:24.778Z,1018.9
2017-10-13T08:02:33.619Z,1018.89
2017-10-13T08:03:42.459Z,1018.9
2017-10-13T08:04:51.300Z,1018.83
2017-10-13T08:06:00.133Z,1018.88
2017-10-13T08:07:08.976Z,1018.86
2017-10-13T08:08:17.813Z,1018.91
2017-10-13T08:09:26.652Z,1018.89
2017-10-13T08:10:35.490Z,1018.94
2017-10-13T08:11:44.331Z,1018.93
2017-10-13T08:12:53.172Z,1018.94
2017-10-13T08:14:02.008Z,1019
2017-10-13T08:15:10.852Z,1018.99
2017-10-13T08:16:19.697Z,1019.03
2017-10-13T08:17:28.527Z,1019.01
2017-10-13T08:18:37.369Z,1019.02
2017-10-13T08:19:46.207Z,1019.03
2017-10-13T08:20:55.047Z,1019.01
2017-10-13T08:22:03.884Z,1019
2017-10-13T08:23:13.068Z,1019.05
2017-10-13T08:24:21.900Z,1019.01
2017-10-13T08:25:31.090Z,1018.93
2017-10-13T08:26:39.919Z,1018.91
2017-10-13T08:27:48.757Z,1018.98
2017-10-13T08:28:57.600Z,1018.98
2017-10-13T08:30:06.479Z,1019.02
2017-10-13T08:31:15.738Z,1019.01
2017-10-13T08:32:24.576Z,1019.04
2017-10-13T08:33:33.766Z,1019.09
2017-10-13T08:34:42.605Z,1019.08
2017-10-13T08:35:51.451Z,1019.1
2017-10-13T08:37:00.288Z,1019.08
2017-10-13T08:38:09.454Z,1019.06
2017-10-13T08:39:18.296Z,1019.03
2017-10-13T08:40:27.137Z,1019.04
2017-10-13T08:41:35.977Z,1019.08
2017-10-13T08:42:44.816Z,1019.04
2017-10-13T08:43:53.654Z,1019.09
2017-10-13T08:45:02.497Z,1019.09
2017-10-13T08:46:11.334Z,1019.06
2017-10-13T08:47:20.517Z,1019.05
2017-10-13T08:48:29.348Z,1019.08
2017-10-13T08:49:38.187Z,1019.11
2017-10-13T08:50:47.024Z,1019.13
2017-10-13T08:51:55.869Z,1019.16
2017-10-13T08:53:04.710Z,1019.15
2017-10-13T08:54:13.551Z,1019.16
2017-10-13T08:55:22.388Z,1019.14
2017-10-13T08:56:31.268Z,1019.13
2017-10-13T08:57:40.113Z,1019.17
2017-10-13T08:58:48.960Z,1019.17
2017-10-13T08:59:57.801Z,1019.19
2017-10-13T09:01:06.643Z,1019.13
2017-10-13T09:02:15.487Z,1019.12
2017-10-13T09:03:24.323Z,1019.14
2017-10-13T09:04:33.165Z,1019.2
2017-10-13T09:05:42.002Z,1019.13
2017-10-13T09:06:50.959Z,1019.16
2017-10-13T09:07:59.941Z,1019.16
2017-10-13T09:09:09.209Z,1019.14
2017-10-13T09:10:18.390Z,1019.13
2017-10-13T09:11:27.232Z,1019.17
2017-10-13T09:12:36.069Z,1019.25
2017-10-13T09:13:45.651Z,1019.21
2017-10-13T09:14:54.492Z,1019.19
2017-10-13T09:16:03.774Z,1019.17
2017-10-13T09:17:13.149Z,1019.17
2017-10-13T09:18:22.106Z,1019.16
2017-10-13T09:19:31.295Z,1019.18
2017-10-13T09:20:40.176Z,1019.12
2017-10-13T09:21:49.014Z,1019.16
2017-10-13T09:22:57.853Z,1019.11
2017-10-13T09:24:06.745Z,1019.09
2017-10-13T09:25:15.621Z,1019.03
2017-10-13T09:26:24.469Z,1019.04
2017-10-13T09:27:33.309Z,1019.04
2017-10-13T09:28:42.151Z,1019.06
2017-10-13T09:29:50.988Z,1019.03
2017-10-13T09:31:00.173Z,1019.04
2017-10-13T09:32:09.015Z,1019.04
2017-10-13T09:33:17.869Z,1019.08
2017-10-13T09:34:27.440Z,1019.06
2017-10-13T09:35:36.376Z,1019.12
2017-10-13T09:36:45.341Z,1019.09
2017-10-13T09:37:54.239Z,1019.06
2017-10-13T09:39:03.135Z,1019.1
2017-10-13T09:40:11.985Z,1019.05
2017-10-13T09:41:20.824Z,1019.1
2017-10-13T09:42:29.698Z,1019.13
2017-10-13T09:43:38.559Z,1019.14
2017-10-13T09:44:47.398Z,1019.24
2017-10-13T09:45:56.236Z,1019.19
2017-10-13T09:47:05.084Z,1019.21
2017-10-13T09:48:14.022Z,1019.22
2017-10-13T09:49:23.097Z,1019.21
2017-10-13T09:50:31.972Z,1019.13
2017-10-13T09:51:40.809Z,1019.14
2017-10-13T09:52:49.651Z,1019.16
2017-10-13T09:53:58.489Z,1019.19
2017-10-13T09:55:07.330Z,1019.19
2017-10-13T09:56:16.260Z,1019.13
2017-10-13T09:57:25.132Z,1019.08
2017-10-13T09:58:34.117Z,1019.06
2017-10-13T09:59:43.092Z,1019.08
2017-10-13T10:00:51.936Z,1019.09
2017-10-13T10:02:00.775Z,1019.1
2017-10-13T10:03:09.730Z,1019.05
2017-10-13T10:04:18.775Z,1019.02
2017-10-13T10:05:27.652Z,1019.13
2017-10-13T10:06:36.499Z,1019.12
2017-10-13T10:07:46.110Z,1019.18
2017-10-13T10:08:54.983Z,1019.14
2017-10-13T10:10:04.063Z,1019.11
2017-10-13T10:11:13.148Z,1019.17
2017-10-13T10:12:22.321Z,1019.09
2017-10-13T10:13:31.167Z,1019.13
2017-10-13T10:14:40.008Z,1019.1
2017-10-13T10:15:48.849Z,1019.09
2017-10-13T10:16:57.692Z,1019.07
2017-10-13T10:18:06.682Z,1019.05
2017-10-13T10:19:15.559Z,1019.05
2017-10-13T10:20:24.755Z,1019.08
2017-10-13T10:21:33.622Z,1019.06
2017-10-13T10:22:42.518Z,1019.03
2017-10-13T10:23:52.422Z,1019.04
2017-10-13T10:25:01.267Z,1019
2017-10-13T10:26:10.245Z,1019.02
2017-10-13T10:27:19.093Z,1019.01
2017-10-13T10:28:27.958Z,1019.03
2017-10-13T10:29:36.903Z,1019.06
2017-10-13T10:30:45.760Z,1019.09
2017-10-13T10:31:54.667Z,1019.08
2017-10-13T10:33:03.521Z,1019.11
2017-10-13T10:34:12.380Z,1019.12
2017-10-13T10:35:21.243Z,1019.13
2017-10-13T10:36:30.126Z,1019.14
2017-10-13T10:37:39.337Z,1019.14
2017-10-13T10:38:48.196Z,1019.12
2017-10-13T10:39:57.059Z,1019.2
2017-10-13T10:41:05.919Z,1019.15
2017-10-13T10:42:14.778Z,1019.09
2017-10-13T10:43:23.640Z,1019.14
2017-10-13T10:44:32.506Z,1019.11
2017-10-13T10:45:41.388Z,1019.11
2017-10-13T10:46:50.605Z,1019.14
2017-10-13T10:47:59.453Z,1019.14
2017-10-13T10:49:08.320Z,1019.16
2017-10-13T10:50:17.172Z,1019.15
2017-10-13T10:51:26.029Z,1019.16
2017-10-13T10:52:34.898Z,1019.11
2017-10-13T10:53:43.767Z,1019.09
2017-10-13T10:54:52.968Z,1019.06
2017-10-13T10:56:01.830Z,1019.05
2017-10-13T10:57:10.690Z,1019.08
2017-10-13T10:58:19.569Z,1019.11
2017-10-13T10:59:28.430Z,1019.12
2017-10-13T11:00:37.650Z,1019.12
2017-10-13T11:01:46.641Z,1019.13
2017-10-13T11:02:55.488Z,1019.14
2017-10-13T11:04:04.329Z,1019.14
2017-10-13T11:05:13.167Z,1019.11
2017-10-13T11:06:22.008Z,1019.06
2017-10-13T11:07:30.846Z,1019.03
2017-10-13T11:08:39.692Z,1019.02
2017-10-13T11:09:48.578Z,1018.99
2017-10-13T11:10:58.282Z,1019.01
2017-10-13T11:12:08.008Z,1019.04
2017-10-13T11:13:17.878Z,1019.12
2017-10-13T11:14:27.079Z,1019.08
2017-10-13T11:15:36.557Z,1019.09
2017-10-13T11:16:45.579Z,1019.09
2017-10-13T11:17:54.970Z,1019.08
2017-10-13T11:19:04.864Z,1019.08
2017-10-13T11:20:14.457Z,1019.05
2017-10-13T11:21:23.780Z,1019.01
2017-10-13T11:22:32.641Z,1019.06
2017-10-13T11:23:41.532Z,1019.03
2017-10-13T11:24:50.394Z,1019
2017-10-13T11:25:59.750Z,1018.96
2017-10-13T11:27:08.716Z,1018.96
2017-10-13T11:28:17.607Z,1018.97
2017-10-13T11:29:26.476Z,1018.99
2017-10-13T11:30:35.309Z,1019
2017-10-13T11:31:44.159Z,1018.98
2017-10-13T11:32:52.995Z,1019.03
2017-10-13T11:34:01.840Z,1019.07
2017-10-13T11:35:10.684Z,1019.04
2017-10-13T11:36:19.522Z,1019.02
2017-10-13T11:37:28.730Z,1019.04
2017-10-13T11:38:39.176Z,1019.04
2017-10-13T11:39:48.350Z,1019.05
2017-10-13T11:40:57.192Z,1019.09
2017-10-13T11:42:06.032Z,1019.07
2017-10-13T11:43:14.878Z,1019.11
2017-10-13T11:44:23.711Z,1019.06
2017-10-13T11:45:32.559Z,1019.07
2017-10-13T11:46:41.731Z,1019.02
2017-10-13T11:47:50.576Z,1018.98
2017-10-13T11:48:59.421Z,1018.96
2017-10-13T11:50:08.260Z,1018.93
2017-10-13T11:51:17.103Z,1018.97
2017-10-13T11:52:25.942Z,1018.92
2017-10-13T11:53:34.783Z,1018.94
2017-10-13T11:54:43.627Z,1019
2017-10-13T11:55:52.463Z,1018.99
2017-10-13T11:57:01.305Z,1018.99
2017-10-13T11:58:10.156Z,1019
2017-10-13T11:59:18.991Z,1018.97
2017-10-13T12:00:28.169Z,1019.04
2017-10-13T12:01:37.021Z,1019.02
2017-10-13T12:02:46.211Z,1019.08
2017-10-13T12:03:55.038Z,1019.07
2017-10-13T12:05:03.884Z,1019.1
2017-10-13T12:06:12.723Z,1019.16
2017-10-13T12:07:21.561Z,1019.17
2017-10-13T12:08:30.405Z,1019.19
2017-10-13T12:09:39.240Z,1019.17
2017-10-13T12:10:48.085Z,1019.17
2017-10-13T12:11:56.930Z,1019.16
2017-10-13T12:13:05.769Z,1019.14
2017-10-13T12:14:14.607Z,1019.13
2017-10-13T12:15:23.447Z,1019.08
2017-10-13T12:16:32.285Z,1019.09
2017-10-13T12:17:41.144Z,1019.09
2017-10-13T12:18:49.975Z,1019.09
2017-10-13T12:19:58.812Z,1019.06
2017-10-13T12:21:07.991Z,1019.1
2017-10-13T12:22:16.854Z,1019.11
2017-10-13T12:23:25.670Z,1019.11
2017-10-13T12:24:34.513Z,1019.09
2017-10-13T12:25:43.348Z,1019.1
2017-10-13T12:26:52.191Z,1019.05
2017-10-13T12:28:01.029Z,1019.05
2017-10-13T12:29:10.217Z,1019.08
2017-10-13T12:30:19.055Z,1019.02
2017-10-13T12:31:27.899Z,1019
2017-10-13T12:32:36.734Z,1019.07
2017-10-13T12:33:45.577Z,1019
2017-10-13T12:34:54.754Z,1019.02
2017-10-13T12:36:03.596Z,1019.06
2017-10-13T12:37:12.438Z,1019.09
2017-10-13T12:38:21.275Z,1019.15
2017-10-13T12:39:30.489Z,1019.15
2017-10-13T12:40:39.331Z,1019.17
2017-10-13T12:41:48.172Z,1019.15
2017-10-13T12:42:57.014Z,1019.12
2017-10-13T12:44:05.859Z,1019.13
2017-10-13T12:45:14.701Z,1019.13
2017-10-13T12:46:23.549Z,1019.11
2017-10-13T12:47:32.729Z,1019.13
2017-10-13T12:48:41.566Z,1019.1
2017-10-13T12:49:50.410Z,1019.11
2017-10-13T12:50:59.252Z,1019.13
2017-10-13T12:52:08.103Z,1019.12
2017-10-13T12:53:16.947Z,1019.14
2017-10-13T12:54:25.786Z,1019.11
2017-10-13T12:55:34.630Z,1019.1
2017-10-13T12:56:43.471Z,1019.13
2017-10-13T12:57:52.313Z,1019.1
2017-10-13T12:59:01.150Z,1019.12
2017-10-13T13:00:09.993Z,1019.13
2017-10-13T13:01:18.828Z,1019.14
2017-10-13T13:02:27.676Z,1019.17
2017-10-13T13:03:36.517Z,1019.13
2017-10-13T13:04:45.354Z,1019.11
2017-10-13T13:05:54.198Z,1019.15
2017-10-13T13:07:03.036Z,1019.12
2017-10-13T13:08:11.877Z,1019.11
2017-10-13T13:09:20.716Z,1019.15
2017-10-13T13:10:29.559Z,1019.12
2017-10-13T13:11:38.400Z,1019.08
2017-10-13T13:12:47.238Z,1019.09
2017-10-13T13:13:56.081Z,1019.07
2017-10-13T13:15:04.920Z,1019.04
2017-10-13T13:16:13.778Z,1019.01
2017-10-13T13:17:22.963Z,1019.05
2017-10-13T13:18:31.810Z,1019.04
2017-10-13T13:19:40.648Z,1019.09
2017-10-13T13:20:49.483Z,1019.09
2017-10-13T13:21:58.329Z,1019.06
2017-10-13T13:23:07.167Z,1019.04
2017-10-13T13:24:16.007Z,1019.06
2017-10-13T13:25:24.850Z,1019.02
2017-10-13T13:26:33.694Z,1019.03
2017-10-13T13:27:42.534Z,1019.01
2017-10-13T13:28:51.708Z,1019.03
2017-10-13T13:30:00.545Z,1019.05
2017-10-13T13:31:09.391Z,1019.1
2017-10-13T13:32:18.237Z,1019.11
2017-10-13T13:33:27.070Z,1019.04
2017-10-13T13:34:35.910Z,1019.1
2017-10-13T13:35:44.757Z,1019.09
2017-10-13T13:36:53.595Z,1019.1
2017-10-13T13:38:02.436Z,1019.13
2017-10-13T13:39:11.281Z,1019.12
2017-10-13T13:40:20.119Z,1019.08
2017-10-13T13:41:28.958Z,1019.12
2017-10-13T13:42:37.803Z,1019.13
2017-10-13T13:43:46.642Z,1019.17
2017-10-13T13:44:55.487Z,1019.17
2017-10-13T13:46:04.326Z,1019.18
2017-10-13T13:47:13.164Z,1019.14
2017-10-13T13:48:22.008Z,1019.15
2017-10-13T13:49:30.846Z,1019.19
2017-10-13T13:50:39.679Z,1019.19
2017-10-13T13:51:48.528Z,1019.17
2017-10-13T13:52:57.367Z,1019.12
2017-10-13T13:54:06.211Z,1019.15
2017-10-13T13:55:15.052Z,1019.13
2017-10-13T13:56:23.896Z,1019.12
2017-10-13T13:57:32.731Z,1019.12